sensor_id;sensor_type;location;lat;lon;timestamp;temperature;humidity
28177;DHT22;15461;41.652;9.378;2022-07-30T00:02:13;24.80;99.90
28177;DHT22;15461;41.652;9.378;2022-07-30T00:04:39;24.80;99.90
28177;DHT22;15461;41.652;9.378;2022-07-30T00:07:05;24.80;99.90
28177;DHT22;15461;41.652;9.378;2022-07-30T00:09:31;24.70;99.90
28177;DHT22;15461;41.652;9.378;2022-07-30T00:11:56;24.80;99.90
28177;DHT22;15461;41.652;9.378;2022-07-30T00:14:22;24.80;99.90
28177;DHT22;15461;41.652;9.378;2022-07-30T00:16:48;24.80;99.90
28177;DHT22;15461;41.652;9.378;2022-07-30T00:19:14;24.80;99.90
28177;DHT22;15461;41.652;9.378;2022-07-30T00:21:40;24.80;99.90
28177;DHT22;15461;41.652;9.378;2022-07-30T00:24:07;24.90;99.90
28177;DHT22;15461;41.652;9.378;2022-07-30T00:26:33;24.90;99.90
28177;DHT22;15461;41.652;9.378;2022-07-30T00:28:59;24.90;99.90
28177;DHT22;15461;41.652;9.378;2022-07-30T00:31:25;24.90;99.90
28177;DHT22;15461;41.652;9.378;2022-07-30T00:33:51;24.90;99.90
28177;DHT22;15461;41.652;9.378;2022-07-30T00:36:17;24.80;99.90
28177;DHT22;15461;41.652;9.378;2022-07-30T00:38:44;24.80;99.90
28177;DHT22;15461;41.652;9.378;2022-07-30T00:41:10;24.80;99.90
28177;DHT22;15461;41.652;9.378;2022-07-30T00:43:36;24.80;99.90
28177;DHT22;15461;41.652;9.378;2022-07-30T00:46:02;24.90;99.90
28177;DHT22;15461;41.652;9.378;2022-07-30T00:48:28;25.00;99.90
28177;DHT22;15461;41.652;9.378;2022-07-30T00:50:54;25.10;99.90
28177;DHT22;15461;41.652;9.378;2022-07-30T00:53:20;25.20;99.90
28177;DHT22;15461;41.652;9.378;2022-07-30T00:55:46;25.20;99.90
28177;DHT22;15461;41.652;9.378;2022-07-30T00:58:12;25.30;99.90
28177;DHT22;15461;41.652;9.378;2022-07-30T01:00:38;25.20;99.90
28177;DHT22;15461;41.652;9.378;2022-07-30T01:03:04;25.30;99.90
28177;DHT22;15461;41.652;9.378;2022-07-30T01:05:30;25.30;99.90
28177;DHT22;15461;41.652;9.378;2022-07-30T01:07:56;25.40;99.90
28177;DHT22;15461;41.652;9.378;2022-07-30T01:10:22;25.40;99.90
28177;DHT22;15461;41.652;9.378;2022-07-30T01:12:48;25.40;99.90
28177;DHT22;15461;41.652;9.378;2022-07-30T01:15:17;25.30;99.90
28177;DHT22;15461;41.652;9.378;2022-07-30T01:17:47;25.30;99.90
28177;DHT22;15461;41.652;9.378;2022-07-30T01:20:20;25.20;99.90
28177;DHT22;15461;41.652;9.378;2022-07-30T01:22:54;25.20;99.90
28177;DHT22;15461;41.652;9.378;2022-07-30T01:28:36;25.20;99.90
28177;DHT22;15461;41.652;9.378;2022-07-30T01:31:06;25.20;99.90
28177;DHT22;15461;41.652;9.378;2022-07-30T01:33:35;25.10;99.90
28177;DHT22;15461;41.652;9.378;2022-07-30T01:36:02;25.10;99.90
28177;DHT22;15461;41.652;9.378;2022-07-30T01:38:30;25.00;99.90
28177;DHT22;15461;41.652;9.378;2022-07-30T01:40:56;25.00;99.90
28177;DHT22;15461;41.652;9.378;2022-07-30T01:43:23;25.00;99.90
28177;DHT22;15461;41.652;9.378;2022-07-30T01:45:51;25.00;99.90
28177;DHT22;15461;41.652;9.378;2022-07-30T01:48:20;25.00;99.90
28177;DHT22;15461;41.652;9.378;2022-07-30T01:50:51;25.00;99.90
28177;DHT22;15461;41.652;9.378;2022-07-30T01:53:21;25.10;99.90
28177;DHT22;15461;41.652;9.378;2022-07-30T01:55:49;25.10;99.90
28177;DHT22;15461;41.652;9.378;2022-07-30T01:58:19;25.00;99.90
28177;DHT22;15461;41.652;9.378;2022-07-30T02:00:51;25.00;99.90
28177;DHT22;15461;41.652;9.378;2022-07-30T02:03:21;25.00;99.90
28177;DHT22;15461;41.652;9.378;2022-07-30T02:05:57;25.00;99.90
28177;DHT22;15461;41.652;9.378;2022-07-30T02:08:38;25.00;99.90
28177;DHT22;15461;41.652;9.378;2022-07-30T02:11:08;24.90;99.90
28177;DHT22;15461;41.652;9.378;2022-07-30T02:13:49;24.90;99.90
28177;DHT22;15461;41.652;9.378;2022-07-30T02:16:21;24.80;99.90
28177;DHT22;15461;41.652;9.378;2022-07-30T02:18:58;24.80;99.90
28177;DHT22;15461;41.652;9.378;2022-07-30T02:21:29;24.80;99.90
28177;DHT22;15461;41.652;9.378;2022-07-30T02:23:57;24.70;99.90
28177;DHT22;15461;41.652;9.378;2022-07-30T02:26:25;24.70;99.90
28177;DHT22;15461;41.652;9.378;2022-07-30T02:28:53;24.60;99.90
28177;DHT22;15461;41.652;9.378;2022-07-30T02:31:24;24.60;99.90
28177;DHT22;15461;41.652;9.378;2022-07-30T02:33:56;24.60;99.90
28177;DHT22;15461;41.652;9.378;2022-07-30T02:36:26;24.60;99.90
28177;DHT22;15461;41.652;9.378;2022-07-30T02:38:53;24.50;99.90
28177;DHT22;15461;41.652;9.378;2022-07-30T02:41:20;24.50;99.90
28177;DHT22;15461;41.652;9.378;2022-07-30T02:43:50;24.40;99.90
28177;DHT22;15461;41.652;9.378;2022-07-30T02:46:19;24.40;99.90
28177;DHT22;15461;41.652;9.378;2022-07-30T02:49:06;24.30;99.90
28177;DHT22;15461;41.652;9.378;2022-07-30T02:51:34;24.30;99.90
28177;DHT22;15461;41.652;9.378;2022-07-30T02:54:01;24.30;99.90
28177;DHT22;15461;41.652;9.378;2022-07-30T02:56:29;24.20;99.90
28177;DHT22;15461;41.652;9.378;2022-07-30T02:58:56;24.20;99.90
28177;DHT22;15461;41.652;9.378;2022-07-30T03:01:24;24.20;99.90
28177;DHT22;15461;41.652;9.378;2022-07-30T03:03:51;24.10;99.90
28177;DHT22;15461;41.652;9.378;2022-07-30T03:06:20;24.10;99.90
28177;DHT22;15461;41.652;9.378;2022-07-30T03:08:49;24.10;99.90
28177;DHT22;15461;41.652;9.378;2022-07-30T03:11:18;24.20;99.90
28177;DHT22;15461;41.652;9.378;2022-07-30T03:13:44;24.10;99.90
28177;DHT22;15461;41.652;9.378;2022-07-30T03:16:11;24.10;99.90
28177;DHT22;15461;41.652;9.378;2022-07-30T03:18:39;24.10;99.90
28177;DHT22;15461;41.652;9.378;2022-07-30T03:21:09;24.10;99.90
28177;DHT22;15461;41.652;9.378;2022-07-30T03:23:39;24.10;99.90
28177;DHT22;15461;41.652;9.378;2022-07-30T03:26:07;24.00;99.90
28177;DHT22;15461;41.652;9.378;2022-07-30T03:28:37;23.90;99.90
28177;DHT22;15461;41.652;9.378;2022-07-30T03:31:04;23.90;99.90
28177;DHT22;15461;41.652;9.378;2022-07-30T03:33:32;23.90;99.90
28177;DHT22;15461;41.652;9.378;2022-07-30T03:35:59;23.90;99.90
28177;DHT22;15461;41.652;9.378;2022-07-30T03:38:26;23.90;99.90
28177;DHT22;15461;41.652;9.378;2022-07-30T03:40:54;23.80;99.90
28177;DHT22;15461;41.652;9.378;2022-07-30T03:43:21;23.80;99.90
28177;DHT22;15461;41.652;9.378;2022-07-30T03:45:47;23.80;99.90
28177;DHT22;15461;41.652;9.378;2022-07-30T03:48:16;23.70;99.90
28177;DHT22;15461;41.652;9.378;2022-07-30T03:50:45;23.70;99.90
28177;DHT22;15461;41.652;9.378;2022-07-30T03:53:12;23.70;99.90
28177;DHT22;15461;41.652;9.378;2022-07-30T03:55:59;23.70;99.90
28177;DHT22;15461;41.652;9.378;2022-07-30T03:58:46;23.60;99.90
28177;DHT22;15461;41.652;9.378;2022-07-30T04:01:12;23.70;99.90
28177;DHT22;15461;41.652;9.378;2022-07-30T04:03:38;23.70;99.90
28177;DHT22;15461;41.652;9.378;2022-07-30T04:06:05;23.70;99.90
28177;DHT22;15461;41.652;9.378;2022-07-30T04:08:32;23.80;99.90
28177;DHT22;15461;41.652;9.378;2022-07-30T04:10:58;23.80;99.90
28177;DHT22;15461;41.652;9.378;2022-07-30T04:13:52;23.80;99.90
28177;DHT22;15461;41.652;9.378;2022-07-30T04:16:34;23.80;99.90
28177;DHT22;15461;41.652;9.378;2022-07-30T04:19:03;23.80;99.90
28177;DHT22;15461;41.652;9.378;2022-07-30T04:21:32;23.80;99.90
28177;DHT22;15461;41.652;9.378;2022-07-30T04:23:59;23.80;99.90
28177;DHT22;15461;41.652;9.378;2022-07-30T04:26:31;23.80;99.90
28177;DHT22;15461;41.652;9.378;2022-07-30T04:28:59;23.80;99.90
28177;DHT22;15461;41.652;9.378;2022-07-30T04:31:25;23.80;99.90
28177;DHT22;15461;41.652;9.378;2022-07-30T04:33:54;23.80;99.90
28177;DHT22;15461;41.652;9.378;2022-07-30T04:36:29;23.80;99.90
28177;DHT22;15461;41.652;9.378;2022-07-30T04:38:56;23.80;99.90
28177;DHT22;15461;41.652;9.378;2022-07-30T04:41:22;23.80;99.90
28177;DHT22;15461;41.652;9.378;2022-07-30T04:44:18;23.80;99.90
28177;DHT22;15461;41.652;9.378;2022-07-30T04:47:01;23.80;99.90
28177;DHT22;15461;41.652;9.378;2022-07-30T04:49:33;23.80;99.90
28177;DHT22;15461;41.652;9.378;2022-07-30T04:52:01;23.80;99.90
28177;DHT22;15461;41.652;9.378;2022-07-30T04:54:36;23.80;99.90
28177;DHT22;15461;41.652;9.378;2022-07-30T04:59:39;23.80;99.90
28177;DHT22;15461;41.652;9.378;2022-07-30T05:02:06;23.80;99.90
28177;DHT22;15461;41.652;9.378;2022-07-30T05:04:34;23.80;99.90
28177;DHT22;15461;41.652;9.378;2022-07-30T05:07:02;23.80;99.90
28177;DHT22;15461;41.652;9.378;2022-07-30T05:09:29;23.90;99.90
28177;DHT22;15461;41.652;9.378;2022-07-30T05:11:56;24.00;99.90
28177;DHT22;15461;41.652;9.378;2022-07-30T05:14:23;24.10;99.90
28177;DHT22;15461;41.652;9.378;2022-07-30T05:16:50;24.20;99.90
28177;DHT22;15461;41.652;9.378;2022-07-30T05:19:17;24.20;99.90
28177;DHT22;15461;41.652;9.378;2022-07-30T05:21:44;24.30;99.90
28177;DHT22;15461;41.652;9.378;2022-07-30T05:24:10;24.40;99.90
28177;DHT22;15461;41.652;9.378;2022-07-30T05:26:39;24.30;99.90
28177;DHT22;15461;41.652;9.378;2022-07-30T05:29:07;24.30;99.90
28177;DHT22;15461;41.652;9.378;2022-07-30T05:31:44;24.40;99.90
28177;DHT22;15461;41.652;9.378;2022-07-30T05:34:10;24.30;99.90
28177;DHT22;15461;41.652;9.378;2022-07-30T05:36:41;24.30;99.90
28177;DHT22;15461;41.652;9.378;2022-07-30T05:39:12;24.40;99.90
28177;DHT22;15461;41.652;9.378;2022-07-30T05:41:57;24.50;99.90
28177;DHT22;15461;41.652;9.378;2022-07-30T05:44:32;24.60;99.90
28177;DHT22;15461;41.652;9.378;2022-07-30T05:46:59;24.80;99.90
28177;DHT22;15461;41.652;9.378;2022-07-30T05:49:25;25.00;99.90
28177;DHT22;15461;41.652;9.378;2022-07-30T05:51:53;25.20;99.90
28177;DHT22;15461;41.652;9.378;2022-07-30T05:54:19;25.50;99.90
28177;DHT22;15461;41.652;9.378;2022-07-30T05:57:17;25.70;99.90
28177;DHT22;15461;41.652;9.378;2022-07-30T05:59:43;25.90;99.90
28177;DHT22;15461;41.652;9.378;2022-07-30T06:02:17;26.10;99.90
28177;DHT22;15461;41.652;9.378;2022-07-30T06:05:01;26.30;99.90
28177;DHT22;15461;41.652;9.378;2022-07-30T06:07:28;26.50;99.90
28177;DHT22;15461;41.652;9.378;2022-07-30T06:09:56;26.70;99.90
28177;DHT22;15461;41.652;9.378;2022-07-30T06:12:29;26.80;99.90
28177;DHT22;15461;41.652;9.378;2022-07-30T06:14:59;27.00;99.90
28177;DHT22;15461;41.652;9.378;2022-07-30T06:17:33;27.20;99.90
28177;DHT22;15461;41.652;9.378;2022-07-30T06:20:06;27.40;99.90
28177;DHT22;15461;41.652;9.378;2022-07-30T06:22:44;27.50;99.90
28177;DHT22;15461;41.652;9.378;2022-07-30T06:25:19;27.60;99.90
28177;DHT22;15461;41.652;9.378;2022-07-30T06:27:45;27.80;99.90
28177;DHT22;15461;41.652;9.378;2022-07-30T06:30:13;28.00;99.90
28177;DHT22;15461;41.652;9.378;2022-07-30T06:32:40;28.10;99.90
28177;DHT22;15461;41.652;9.378;2022-07-30T06:35:08;28.20;99.90
28177;DHT22;15461;41.652;9.378;2022-07-30T06:37:34;28.30;99.90
28177;DHT22;15461;41.652;9.378;2022-07-30T06:40:00;28.40;99.90
28177;DHT22;15461;41.652;9.378;2022-07-30T06:42:51;28.50;99.90
28177;DHT22;15461;41.652;9.378;2022-07-30T06:45:49;28.60;99.90
28177;DHT22;15461;41.652;9.378;2022-07-30T06:48:32;28.70;99.90
28177;DHT22;15461;41.652;9.378;2022-07-30T06:51:00;28.80;99.90
28177;DHT22;15461;41.652;9.378;2022-07-30T06:53:27;28.80;99.90
28177;DHT22;15461;41.652;9.378;2022-07-30T06:56:16;28.80;99.90
28177;DHT22;15461;41.652;9.378;2022-07-30T06:58:47;29.00;99.90
28177;DHT22;15461;41.652;9.378;2022-07-30T07:01:19;29.10;99.90
28177;DHT22;15461;41.652;9.378;2022-07-30T07:03:49;29.30;99.90
28177;DHT22;15461;41.652;9.378;2022-07-30T07:06:15;29.30;99.90
28177;DHT22;15461;41.652;9.378;2022-07-30T07:08:42;29.40;99.90
28177;DHT22;15461;41.652;9.378;2022-07-30T07:11:11;29.50;99.90
28177;DHT22;15461;41.652;9.378;2022-07-30T07:13:47;29.70;99.90
28177;DHT22;15461;41.652;9.378;2022-07-30T07:16:22;29.80;99.90
28177;DHT22;15461;41.652;9.378;2022-07-30T07:18:53;29.90;99.90
28177;DHT22;15461;41.652;9.378;2022-07-30T07:21:19;30.00;99.90
28177;DHT22;15461;41.652;9.378;2022-07-30T07:23:45;30.20;99.90
28177;DHT22;15461;41.652;9.378;2022-07-30T07:26:32;30.50;99.90
28177;DHT22;15461;41.652;9.378;2022-07-30T07:28:58;30.70;99.90
28177;DHT22;15461;41.652;9.378;2022-07-30T07:31:24;31.00;99.90
28177;DHT22;15461;41.652;9.378;2022-07-30T07:33:50;31.00;99.90
28177;DHT22;15461;41.652;9.378;2022-07-30T07:36:22;31.10;99.90
28177;DHT22;15461;41.652;9.378;2022-07-30T07:38:49;31.40;99.90
28177;DHT22;15461;41.652;9.378;2022-07-30T07:41:15;31.50;99.90
28177;DHT22;15461;41.652;9.378;2022-07-30T07:43:42;31.50;99.90
28177;DHT22;15461;41.652;9.378;2022-07-30T07:46:12;31.40;99.90
28177;DHT22;15461;41.652;9.378;2022-07-30T07:48:42;31.30;99.90
28177;DHT22;15461;41.652;9.378;2022-07-30T07:51:28;31.10;99.90
28177;DHT22;15461;41.652;9.378;2022-07-30T07:53:54;31.00;99.90
28177;DHT22;15461;41.652;9.378;2022-07-30T07:56:20;31.10;99.90
28177;DHT22;15461;41.652;9.378;2022-07-30T07:58:47;31.20;99.90
28177;DHT22;15461;41.652;9.378;2022-07-30T08:01:13;31.10;99.90
28177;DHT22;15461;41.652;9.378;2022-07-30T08:03:59;31.10;99.90
28177;DHT22;15461;41.652;9.378;2022-07-30T08:06:45;31.20;99.90
28177;DHT22;15461;41.652;9.378;2022-07-30T08:09:43;31.30;99.90
28177;DHT22;15461;41.652;9.378;2022-07-30T08:12:30;31.40;99.90
28177;DHT22;15461;41.652;9.378;2022-07-30T08:15:13;31.70;99.90
28177;DHT22;15461;41.652;9.378;2022-07-30T08:18:15;32.00;99.90
28177;DHT22;15461;41.652;9.378;2022-07-30T08:20:48;32.40;99.90
28177;DHT22;15461;41.652;9.378;2022-07-30T08:23:18;32.50;99.90
28177;DHT22;15461;41.652;9.378;2022-07-30T08:25:48;32.70;99.90
28177;DHT22;15461;41.652;9.378;2022-07-30T08:28:14;32.60;99.90
28177;DHT22;15461;41.652;9.378;2022-07-30T08:30:40;32.70;99.90
28177;DHT22;15461;41.652;9.378;2022-07-30T08:33:06;32.70;99.90
28177;DHT22;15461;41.652;9.378;2022-07-30T08:35:32;32.70;99.90
28177;DHT22;15461;41.652;9.378;2022-07-30T08:37:58;32.80;99.90
28177;DHT22;15461;41.652;9.378;2022-07-30T08:40:25;33.00;99.90
28177;DHT22;15461;41.652;9.378;2022-07-30T08:43:04;33.20;99.90
28177;DHT22;15461;41.652;9.378;2022-07-30T08:45:32;33.20;99.90
28177;DHT22;15461;41.652;9.378;2022-07-30T08:48:07;33.20;99.90
28177;DHT22;15461;41.652;9.378;2022-07-30T08:50:44;33.40;99.90
28177;DHT22;15461;41.652;9.378;2022-07-30T08:53:32;33.50;99.90
28177;DHT22;15461;41.652;9.378;2022-07-30T08:55:59;33.50;99.80
28177;DHT22;15461;41.652;9.378;2022-07-30T08:58:31;33.60;99.90
28177;DHT22;15461;41.652;9.378;2022-07-30T09:00:59;33.70;99.90
28177;DHT22;15461;41.652;9.378;2022-07-30T09:03:28;33.80;99.90
28177;DHT22;15461;41.652;9.378;2022-07-30T09:05:59;33.70;99.90
28177;DHT22;15461;41.652;9.378;2022-07-30T09:08:25;33.70;99.90
28177;DHT22;15461;41.652;9.378;2022-07-30T09:10:51;34.00;99.90
28177;DHT22;15461;41.652;9.378;2022-07-30T09:13:31;34.10;93.90
28177;DHT22;15461;41.652;9.378;2022-07-30T09:16:01;34.30;90.30
28177;DHT22;15461;41.652;9.378;2022-07-30T09:18:37;34.40;88.00
28177;DHT22;15461;41.652;9.378;2022-07-30T09:21:22;34.60;86.70
28177;DHT22;15461;41.652;9.378;2022-07-30T09:23:57;34.70;82.50
28177;DHT22;15461;41.652;9.378;2022-07-30T09:26:53;34.70;82.40
28177;DHT22;15461;41.652;9.378;2022-07-30T09:29:40;34.70;85.40
28177;DHT22;15461;41.652;9.378;2022-07-30T09:32:55;34.90;81.00
28177;DHT22;15461;41.652;9.378;2022-07-30T09:35:40;34.90;80.20
28177;DHT22;15461;41.652;9.378;2022-07-30T09:38:50;35.00;84.20
28177;DHT22;15461;41.652;9.378;2022-07-30T09:41:48;34.90;83.90
28177;DHT22;15461;41.652;9.378;2022-07-30T09:44:28;34.90;83.70
28177;DHT22;15461;41.652;9.378;2022-07-30T09:46:57;35.10;84.40
28177;DHT22;15461;41.652;9.378;2022-07-30T09:49:37;35.20;83.00
28177;DHT22;15461;41.652;9.378;2022-07-30T09:52:06;35.10;82.80
28177;DHT22;15461;41.652;9.378;2022-07-30T09:54:50;35.20;82.70
28177;DHT22;15461;41.652;9.378;2022-07-30T09:57:16;35.10;82.20
28177;DHT22;15461;41.652;9.378;2022-07-30T10:03:24;35.10;82.90
28177;DHT22;15461;41.652;9.378;2022-07-30T10:06:09;35.30;81.90
28177;DHT22;15461;41.652;9.378;2022-07-30T10:08:42;35.40;80.80
28177;DHT22;15461;41.652;9.378;2022-07-30T10:11:14;35.60;80.00
28177;DHT22;15461;41.652;9.378;2022-07-30T10:13:42;35.70;81.10
28177;DHT22;15461;41.652;9.378;2022-07-30T10:16:10;35.70;79.00
28177;DHT22;15461;41.652;9.378;2022-07-30T10:18:36;35.70;77.40
28177;DHT22;15461;41.652;9.378;2022-07-30T10:21:24;35.70;79.70
28177;DHT22;15461;41.652;9.378;2022-07-30T10:24:24;35.70;80.30
28177;DHT22;15461;41.652;9.378;2022-07-30T10:27:09;35.60;84.80
28177;DHT22;15461;41.652;9.378;2022-07-30T10:29:48;35.30;87.40
28177;DHT22;15461;41.652;9.378;2022-07-30T10:32:14;35.10;89.10
28177;DHT22;15461;41.652;9.378;2022-07-30T10:34:41;35.20;90.80
28177;DHT22;15461;41.652;9.378;2022-07-30T10:37:09;35.10;93.60
28177;DHT22;15461;41.652;9.378;2022-07-30T10:39:46;35.10;93.70
28177;DHT22;15461;41.652;9.378;2022-07-30T10:47:53;34.90;95.30
28177;DHT22;15461;41.652;9.378;2022-07-30T10:50:22;34.70;95.70
28177;DHT22;15461;41.652;9.378;2022-07-30T10:52:56;34.70;95.30
28177;DHT22;15461;41.652;9.378;2022-07-30T10:55:25;34.60;95.80
28177;DHT22;15461;41.652;9.378;2022-07-30T10:58:06;34.70;96.40
28177;DHT22;15461;41.652;9.378;2022-07-30T11:03:25;34.80;95.30
28177;DHT22;15461;41.652;9.378;2022-07-30T11:08:42;34.90;97.50
28177;DHT22;15461;41.652;9.378;2022-07-30T11:13:56;35.00;97.50
28177;DHT22;15461;41.652;9.378;2022-07-30T11:16:56;35.10;96.40
28177;DHT22;15461;41.652;9.378;2022-07-30T11:19:15;35.00;96.50
28177;DHT22;15461;41.652;9.378;2022-07-30T11:21:43;35.20;96.40
28177;DHT22;15461;41.652;9.378;2022-07-30T11:24:44;35.10;96.10
28177;DHT22;15461;41.652;9.378;2022-07-30T11:30:04;34.90;96.00
28177;DHT22;15461;41.652;9.378;2022-07-30T11:32:33;34.90;95.70
28177;DHT22;15461;41.652;9.378;2022-07-30T11:35:22;35.00;95.40
28177;DHT22;15461;41.652;9.378;2022-07-30T11:40:34;35.30;92.50
28177;DHT22;15461;41.652;9.378;2022-07-30T11:43:26;35.60;88.80
28177;DHT22;15461;41.652;9.378;2022-07-30T11:46:10;35.60;84.50
28177;DHT22;15461;41.652;9.378;2022-07-30T11:48:42;35.60;84.50
28177;DHT22;15461;41.652;9.378;2022-07-30T11:51:19;35.70;84.70
28177;DHT22;15461;41.652;9.378;2022-07-30T11:54:02;35.90;83.70
28177;DHT22;15461;41.652;9.378;2022-07-30T11:56:30;36.20;80.40
28177;DHT22;15461;41.652;9.378;2022-07-30T11:59:04;36.10;79.30
28177;DHT22;15461;41.652;9.378;2022-07-30T12:01:31;35.90;92.60
28177;DHT22;15461;41.652;9.378;2022-07-30T12:04:04;35.70;94.50
28177;DHT22;15461;41.652;9.378;2022-07-30T12:06:31;35.50;97.70
28177;DHT22;15461;41.652;9.378;2022-07-30T12:08:58;35.20;97.80
28177;DHT22;15461;41.652;9.378;2022-07-30T12:11:31;35.10;99.50
28177;DHT22;15461;41.652;9.378;2022-07-30T12:13:57;35.00;99.90
28177;DHT22;15461;41.652;9.378;2022-07-30T12:16:25;35.00;99.90
28177;DHT22;15461;41.652;9.378;2022-07-30T12:18:52;34.80;99.90
28177;DHT22;15461;41.652;9.378;2022-07-30T12:21:18;34.70;99.90
28177;DHT22;15461;41.652;9.378;2022-07-30T12:23:56;34.60;99.90
28177;DHT22;15461;41.652;9.378;2022-07-30T12:26:25;34.50;99.90
28177;DHT22;15461;41.652;9.378;2022-07-30T12:28:51;34.20;99.90
28177;DHT22;15461;41.652;9.378;2022-07-30T12:31:19;34.20;99.90
28177;DHT22;15461;41.652;9.378;2022-07-30T12:33:45;34.00;99.90
28177;DHT22;15461;41.652;9.378;2022-07-30T12:36:24;33.90;99.90
28177;DHT22;15461;41.652;9.378;2022-07-30T12:38:50;33.80;99.90
28177;DHT22;15461;41.652;9.378;2022-07-30T12:41:19;33.60;99.90
28177;DHT22;15461;41.652;9.378;2022-07-30T12:43:51;33.70;99.90
28177;DHT22;15461;41.652;9.378;2022-07-30T12:46:22;33.70;99.90
28177;DHT22;15461;41.652;9.378;2022-07-30T12:51:20;33.40;99.90
28177;DHT22;15461;41.652;9.378;2022-07-30T12:53:46;33.30;99.90
28177;DHT22;15461;41.652;9.378;2022-07-30T12:56:14;33.10;99.90
28177;DHT22;15461;41.652;9.378;2022-07-30T12:58:41;33.30;99.90
28177;DHT22;15461;41.652;9.378;2022-07-30T13:01:08;33.30;99.90
28177;DHT22;15461;41.652;9.378;2022-07-30T13:03:34;33.60;99.90
28177;DHT22;15461;41.652;9.378;2022-07-30T13:06:17;33.70;99.90
28177;DHT22;15461;41.652;9.378;2022-07-30T13:08:45;33.50;99.90
28177;DHT22;15461;41.652;9.378;2022-07-30T13:11:12;33.40;99.90
28177;DHT22;15461;41.652;9.378;2022-07-30T13:13:38;33.50;99.90
28177;DHT22;15461;41.652;9.378;2022-07-30T13:16:05;33.30;99.90
28177;DHT22;15461;41.652;9.378;2022-07-30T13:18:33;33.10;99.90
28177;DHT22;15461;41.652;9.378;2022-07-30T13:21:00;32.80;99.90
28177;DHT22;15461;41.652;9.378;2022-07-30T13:23:27;32.90;99.90
28177;DHT22;15461;41.652;9.378;2022-07-30T13:25:55;32.70;99.90
28177;DHT22;15461;41.652;9.378;2022-07-30T13:28:21;32.70;99.90
28177;DHT22;15461;41.652;9.378;2022-07-30T13:30:48;32.90;99.90
28177;DHT22;15461;41.652;9.378;2022-07-30T13:33:14;32.70;99.90
28177;DHT22;15461;41.652;9.378;2022-07-30T13:35:40;32.80;99.90
28177;DHT22;15461;41.652;9.378;2022-07-30T13:38:06;32.70;99.90
28177;DHT22;15461;41.652;9.378;2022-07-30T13:40:32;32.70;99.90
28177;DHT22;15461;41.652;9.378;2022-07-30T13:43:00;32.80;99.90
28177;DHT22;15461;41.652;9.378;2022-07-30T13:45:26;32.80;99.90
28177;DHT22;15461;41.652;9.378;2022-07-30T13:47:52;32.70;99.90
28177;DHT22;15461;41.652;9.378;2022-07-30T13:50:18;32.70;99.90
28177;DHT22;15461;41.652;9.378;2022-07-30T13:52:45;32.80;99.90
28177;DHT22;15461;41.652;9.378;2022-07-30T13:55:10;32.80;99.90
28177;DHT22;15461;41.652;9.378;2022-07-30T13:57:36;32.80;99.90
28177;DHT22;15461;41.652;9.378;2022-07-30T14:00:07;32.70;99.90
28177;DHT22;15461;41.652;9.378;2022-07-30T14:02:34;32.70;99.90
28177;DHT22;15461;41.652;9.378;2022-07-30T14:05:00;32.80;99.90
28177;DHT22;15461;41.652;9.378;2022-07-30T14:07:35;32.80;99.90
28177;DHT22;15461;41.652;9.378;2022-07-30T14:10:03;32.90;99.90
28177;DHT22;15461;41.652;9.378;2022-07-30T14:12:29;32.80;99.90
28177;DHT22;15461;41.652;9.378;2022-07-30T14:14:55;32.70;99.90
28177;DHT22;15461;41.652;9.378;2022-07-30T14:17:21;32.40;99.90
28177;DHT22;15461;41.652;9.378;2022-07-30T14:19:47;32.50;99.90
28177;DHT22;15461;41.652;9.378;2022-07-30T14:22:14;32.60;99.90
28177;DHT22;15461;41.652;9.378;2022-07-30T14:24:40;32.60;99.90
28177;DHT22;15461;41.652;9.378;2022-07-30T14:27:06;32.50;99.90
28177;DHT22;15461;41.652;9.378;2022-07-30T14:29:32;32.60;99.90
28177;DHT22;15461;41.652;9.378;2022-07-30T14:31:58;32.80;99.90
28177;DHT22;15461;41.652;9.378;2022-07-30T14:34:24;32.50;99.90
28177;DHT22;15461;41.652;9.378;2022-07-30T14:36:50;32.30;99.90
28177;DHT22;15461;41.652;9.378;2022-07-30T14:39:16;32.40;99.90
28177;DHT22;15461;41.652;9.378;2022-07-30T14:41:42;32.50;99.90
28177;DHT22;15461;41.652;9.378;2022-07-30T14:44:07;32.40;99.90
28177;DHT22;15461;41.652;9.378;2022-07-30T14:46:37;32.60;99.90
28177;DHT22;15461;41.652;9.378;2022-07-30T14:49:03;32.60;99.90
28177;DHT22;15461;41.652;9.378;2022-07-30T14:51:29;32.70;99.90
28177;DHT22;15461;41.652;9.378;2022-07-30T14:53:56;32.80;99.90
28177;DHT22;15461;41.652;9.378;2022-07-30T14:56:22;32.90;99.90
28177;DHT22;15461;41.652;9.378;2022-07-30T14:58:49;33.20;99.90
28177;DHT22;15461;41.652;9.378;2022-07-30T15:01:16;33.20;99.90
28177;DHT22;15461;41.652;9.378;2022-07-30T15:03:42;33.00;99.90
28177;DHT22;15461;41.652;9.378;2022-07-30T15:06:08;32.70;99.90
28177;DHT22;15461;41.652;9.378;2022-07-30T15:08:37;32.80;99.90
28177;DHT22;15461;41.652;9.378;2022-07-30T15:11:03;32.90;99.90
28177;DHT22;15461;41.652;9.378;2022-07-30T15:13:29;32.60;99.90
28177;DHT22;15461;41.652;9.378;2022-07-30T15:15:55;32.30;99.90
28177;DHT22;15461;41.652;9.378;2022-07-30T15:18:21;32.50;99.90
28177;DHT22;15461;41.652;9.378;2022-07-30T15:20:47;32.50;99.90
28177;DHT22;15461;41.652;9.378;2022-07-30T15:23:13;32.30;99.90
28177;DHT22;15461;41.652;9.378;2022-07-30T15:25:39;32.30;99.90
28177;DHT22;15461;41.652;9.378;2022-07-30T15:28:05;32.40;99.90
28177;DHT22;15461;41.652;9.378;2022-07-30T15:30:32;32.50;99.90
28177;DHT22;15461;41.652;9.378;2022-07-30T15:32:58;32.50;99.90
28177;DHT22;15461;41.652;9.378;2022-07-30T15:35:24;32.60;99.90
28177;DHT22;15461;41.652;9.378;2022-07-30T15:37:49;32.70;99.90
28177;DHT22;15461;41.652;9.378;2022-07-30T15:40:16;32.40;99.90
28177;DHT22;15461;41.652;9.378;2022-07-30T15:42:41;32.40;99.90
28177;DHT22;15461;41.652;9.378;2022-07-30T15:45:08;32.30;99.90
28177;DHT22;15461;41.652;9.378;2022-07-30T15:47:34;32.20;99.90
28177;DHT22;15461;41.652;9.378;2022-07-30T15:50:00;32.10;99.90
28177;DHT22;15461;41.652;9.378;2022-07-30T15:52:25;32.20;99.90
28177;DHT22;15461;41.652;9.378;2022-07-30T15:54:51;32.10;99.90
28177;DHT22;15461;41.652;9.378;2022-07-30T15:57:17;32.00;99.90
28177;DHT22;15461;41.652;9.378;2022-07-30T15:59:43;32.00;99.90
28177;DHT22;15461;41.652;9.378;2022-07-30T16:02:09;32.00;99.90
28177;DHT22;15461;41.652;9.378;2022-07-30T16:04:36;32.10;99.90
28177;DHT22;15461;41.652;9.378;2022-07-30T16:07:02;32.00;99.90
28177;DHT22;15461;41.652;9.378;2022-07-30T16:09:29;32.10;99.90
28177;DHT22;15461;41.652;9.378;2022-07-30T16:11:56;32.10;99.90
28177;DHT22;15461;41.652;9.378;2022-07-30T16:14:22;32.30;99.90
28177;DHT22;15461;41.652;9.378;2022-07-30T16:16:48;32.30;99.90
28177;DHT22;15461;41.652;9.378;2022-07-30T16:19:14;32.40;99.90
28177;DHT22;15461;41.652;9.378;2022-07-30T16:21:40;32.40;99.90
28177;DHT22;15461;41.652;9.378;2022-07-30T16:24:06;32.30;99.90